createdAt,value
2022-11-05T00:00:38.297Z,10.50
2022-11-05T00:03:25.302Z,10.50
2022-11-05T00:06:12.394Z,10.50
2022-11-05T00:08:59.196Z,10.50
2022-11-05T00:11:47.215Z,10.50
2022-11-05T00:14:33.405Z,10.50
2022-11-05T00:17:00.926Z,10.50
2022-11-05T00:19:28.467Z,10.50
2022-11-05T00:22:14.353Z,10.50
2022-11-05T00:25:00.782Z,10.50
2022-11-05T00:27:28.339Z,10.50
2022-11-05T00:29:55.250Z,10.50
2022-11-05T00:32:23.759Z,10.50
2022-11-05T00:34:50.604Z,10.50
2022-11-05T00:37:18.149Z,10.50
2022-11-05T00:39:46.873Z,10.50
2022-11-05T00:42:32.874Z,10.50
2022-11-05T00:45:02.632Z,10.50
2022-11-05T00:47:52.815Z,10.50
2022-11-05T00:50:22.222Z,10.50
2022-11-05T00:52:58.236Z,10.50
2022-11-05T00:55:34.322Z,10.50
2022-11-05T00:58:04.892Z,10.50
2022-11-05T01:00:35.733Z,10.60
2022-11-05T01:03:06.143Z,10.50
2022-11-05T01:05:34.972Z,10.50
2022-11-05T01:08:02.216Z,10.50
2022-11-05T01:10:30.876Z,10.50
2022-11-05T01:12:59.495Z,10.50
2022-11-05T01:15:27.264Z,10.50
2022-11-05T01:17:54.150Z,10.50
2022-11-05T01:20:22.746Z,10.50
2022-11-05T01:22:50.333Z,10.50
2022-11-05T01:25:18.058Z,10.50
2022-11-05T01:27:46.671Z,10.50
2022-11-05T01:30:13.985Z,10.50
2022-11-05T01:32:42.465Z,10.50
2022-11-05T01:35:14.012Z,10.40
2022-11-05T01:37:43.446Z,10.50
2022-11-05T01:40:19.565Z,10.40
2022-11-05T01:42:48.752Z,10.50
2022-11-05T01:45:19.669Z,10.40
2022-11-05T01:47:57.847Z,10.40
2022-11-05T01:50:45.130Z,10.40
2022-11-05T01:53:42.334Z,10.40
2022-11-05T01:56:17.549Z,10.40
2022-11-05T01:58:54.567Z,10.40
2022-11-05T02:01:23.034Z,10.30
2022-11-05T02:03:55.935Z,10.40
2022-11-05T02:06:29.011Z,10.30
2022-11-05T02:09:10.302Z,10.40
2022-11-05T02:11:38.752Z,10.40
2022-11-05T02:14:10.456Z,10.40
2022-11-05T02:16:47.924Z,10.40
2022-11-05T02:19:41.036Z,10.40
2022-11-05T02:22:47.064Z,10.40
2022-11-05T02:25:47.124Z,10.40
2022-11-05T02:28:43.389Z,10.40
2022-11-05T02:31:24.045Z,10.30
2022-11-05T02:34:02.675Z,10.30
2022-11-05T02:36:44.141Z,10.30
2022-11-05T02:39:19.904Z,10.30
2022-11-05T02:42:05.132Z,10.30
2022-11-05T02:45:16.648Z,10.30
2022-11-05T02:48:19.811Z,10.20
2022-11-05T02:50:57.114Z,10.20
2022-11-05T02:53:44.697Z,10.30
2022-11-05T02:56:30.530Z,10.30
2022-11-05T02:58:58.820Z,10.20
2022-11-05T03:01:27.171Z,10.30
2022-11-05T03:04:00.808Z,10.20
2022-11-05T03:06:31.767Z,10.20
2022-11-05T03:09:37.745Z,10.20
2022-11-05T03:12:12.674Z,10.20
2022-11-05T03:15:09.485Z,10.30
2022-11-05T03:17:47.936Z,10.20
2022-11-05T03:20:46.786Z,10.20
2022-11-05T03:23:27.246Z,10.20
2022-11-05T03:26:21.913Z,10.20
2022-11-05T03:28:56.399Z,10.20
2022-11-05T03:31:25.244Z,10.20
2022-11-05T03:33:55.035Z,10.20
2022-11-05T03:36:39.678Z,10.20
2022-11-05T03:39:13.880Z,10.20
2022-11-05T03:41:44.919Z,10.20
2022-11-05T03:44:15.279Z,10.20
2022-11-05T03:46:48.012Z,10.20
2022-11-05T03:49:25.315Z,10.20
2022-11-05T03:52:12.256Z,10.20
2022-11-05T03:54:39.228Z,10.20
2022-11-05T03:57:11.255Z,10.20
2022-11-05T03:59:45.508Z,10.20
2022-11-05T04:02:15.788Z,10.20
2022-11-05T04:04:43.742Z,10.20
2022-11-05T04:07:30.177Z,10.20
2022-11-05T04:10:16.883Z,10.20
2022-11-05T04:13:04.075Z,10.20
2022-11-05T04:15:31.386Z,10.20
2022-11-05T04:17:59.083Z,10.20
2022-11-05T04:20:45.044Z,10.20
2022-11-05T04:23:31.587Z,10.20
2022-11-05T04:25:59.832Z,10.20
2022-11-05T04:28:48.108Z,10.20
2022-11-05T04:31:14.960Z,10.20
2022-11-05T04:33:42.547Z,10.20
2022-11-05T04:36:10.205Z,10.20
2022-11-05T04:38:39.239Z,10.20
2022-11-05T04:41:17.332Z,10.20
2022-11-05T04:43:45.131Z,10.20
2022-11-05T04:46:12.767Z,10.20
2022-11-05T04:48:41.013Z,10.20
2022-11-05T04:51:07.888Z,10.20
2022-11-05T04:53:34.808Z,10.20
2022-11-05T04:56:11.608Z,10.20
2022-11-05T04:58:41.229Z,10.10
2022-11-05T05:01:15.069Z,10.20
2022-11-05T05:03:43.800Z,10.20
2022-11-05T05:06:11.923Z,10.20
2022-11-05T05:08:38.801Z,10.20
2022-11-05T05:11:08.890Z,10.10
2022-11-05T05:13:36.524Z,10.20
2022-11-05T05:16:09.925Z,10.20
2022-11-05T05:18:39.877Z,10.20
2022-11-05T05:21:29.548Z,10.20
2022-11-05T05:23:57.170Z,10.10
2022-11-05T05:26:24.837Z,10.10
2022-11-05T05:28:54.064Z,10.20
2022-11-05T05:31:22.940Z,10.20
2022-11-05T05:33:54.164Z,10.20
2022-11-05T05:36:22.291Z,10.20
2022-11-05T05:38:50.179Z,10.20
2022-11-05T05:41:17.776Z,10.20
2022-11-05T05:43:44.956Z,10.10
2022-11-05T05:46:15.618Z,10.20
2022-11-05T05:48:49.608Z,10.10
2022-11-05T05:51:18.769Z,10.10
2022-11-05T05:53:46.456Z,10.10
2022-11-05T05:56:19.365Z,10.10
2022-11-05T05:58:46.889Z,10.20
2022-11-05T06:01:19.237Z,10.10
2022-11-05T06:03:49.216Z,10.10
2022-11-05T06:06:21.278Z,10.10
2022-11-05T06:08:49.229Z,10.10
2022-11-05T06:11:16.312Z,10.00
2022-11-05T06:13:44.628Z,10.10
2022-11-05T06:16:13.077Z,10.10
2022-11-05T06:18:40.681Z,10.10
2022-11-05T06:21:14.108Z,10.00
2022-11-05T06:23:44.021Z,10.10
2022-11-05T06:26:15.643Z,10.00
2022-11-05T06:28:44.612Z,10.10
2022-11-05T06:31:15.084Z,10.10
2022-11-05T06:33:42.618Z,10.00
2022-11-05T06:36:16.011Z,10.00
2022-11-05T06:38:44.459Z,10.00
2022-11-05T06:41:11.332Z,10.00
2022-11-05T06:43:39.482Z,10.00
2022-11-05T06:46:07.693Z,10.10
2022-11-05T06:48:35.347Z,10.00
2022-11-05T06:51:03.560Z,10.00
2022-11-05T06:53:31.844Z,10.00
2022-11-05T06:56:03.277Z,10.00
2022-11-05T06:58:30.993Z,10.00
2022-11-05T07:01:03.770Z,10.00
2022-11-05T07:03:31.663Z,10.00
2022-11-05T07:06:01.980Z,10.00
2022-11-05T07:08:33.411Z,10.00
2022-11-05T07:11:01.547Z,10.00
2022-11-05T07:13:30.819Z,10.00
2022-11-05T07:15:58.578Z,10.00
2022-11-05T07:18:27.079Z,10.00
2022-11-05T07:20:54.611Z,10.00
2022-11-05T07:23:21.577Z,10.00
2022-11-05T07:25:49.905Z,10.00
2022-11-05T07:28:17.495Z,10.00
2022-11-05T07:30:45.230Z,10.00
2022-11-05T07:33:13.390Z,10.00
2022-11-05T07:35:41.273Z,10.00
2022-11-05T07:38:09.284Z,10.00
2022-11-05T07:40:37.024Z,10.00
2022-11-05T07:43:04.636Z,10.00
2022-11-05T07:45:32.244Z,10.00
2022-11-05T07:48:01.815Z,10.00
2022-11-05T07:50:32.161Z,10.00
2022-11-05T07:53:10.859Z,10.10
2022-11-05T07:55:41.912Z,10.10
2022-11-05T07:58:10.443Z,10.10
2022-11-05T08:00:37.792Z,10.10
2022-11-05T08:03:09.301Z,10.00
2022-11-05T08:05:39.809Z,10.10
2022-11-05T08:08:12.117Z,10.10
2022-11-05T08:10:40.718Z,10.00
2022-11-05T08:13:09.418Z,10.00
2022-11-05T08:15:37.095Z,10.00
2022-11-05T08:18:11.172Z,10.00
2022-11-05T08:20:39.355Z,10.00
2022-11-05T08:23:06.908Z,10.00
2022-11-05T08:25:34.591Z,10.00
2022-11-05T08:28:07.780Z,10.00
2022-11-05T08:30:35.599Z,10.00
2022-11-05T08:33:09.146Z,10.00
2022-11-05T08:35:37.279Z,10.00
2022-11-05T08:38:06.659Z,10.00
2022-11-05T08:40:36.665Z,10.00
2022-11-05T08:43:07.065Z,10.00
2022-11-05T08:45:36.033Z,10.00
2022-11-05T08:48:08.882Z,10.00
2022-11-05T08:50:37.425Z,10.00
2022-11-05T08:53:05.740Z,9.90
2022-11-05T08:55:34.570Z,10.00
2022-11-05T08:58:04.990Z,10.00
2022-11-05T09:00:35.341Z,10.00
2022-11-05T09:03:04.243Z,9.90
2022-11-05T09:05:39.209Z,9.90
2022-11-05T09:08:13.059Z,10.00
2022-11-05T09:10:42.644Z,10.00
2022-11-05T09:13:17.800Z,10.00
2022-11-05T09:15:48.843Z,9.90
2022-11-05T09:18:19.263Z,9.90
2022-11-05T09:20:47.379Z,9.90
2022-11-05T09:23:15.684Z,10.00
2022-11-05T09:25:44.440Z,9.90
2022-11-05T09:28:18.876Z,9.90
2022-11-05T09:30:49.616Z,9.90
2022-11-05T09:33:20.068Z,9.90
2022-11-05T09:35:48.475Z,9.90
2022-11-05T09:38:15.396Z,9.90
2022-11-05T09:41:01.790Z,9.90
2022-11-05T09:43:53.644Z,10.00
2022-11-05T09:46:25.552Z,10.30
2022-11-05T09:49:03.277Z,10.60
2022-11-05T09:51:33.189Z,10.40
2022-11-05T09:54:01.892Z,10.30
2022-11-05T09:56:34.338Z,10.10
2022-11-05T09:59:09.091Z,10.10
2022-11-05T10:01:38.419Z,10.00
2022-11-05T10:04:27.816Z,10.00
2022-11-05T10:06:59.934Z,9.90
2022-11-05T10:09:46.399Z,9.90
2022-11-05T10:12:25.772Z,9.80
2022-11-05T10:15:15.655Z,9.70
2022-11-05T10:17:49.195Z,9.70
2022-11-05T10:20:23.541Z,9.60
2022-11-05T10:22:59.142Z,9.60
2022-11-05T10:25:35.350Z,9.60
2022-11-05T10:28:05.913Z,9.60
2022-11-05T10:30:34.750Z,9.50
2022-11-05T10:33:06.573Z,9.50
2022-11-05T10:35:40.564Z,9.50
2022-11-05T10:38:13.524Z,9.50
2022-11-05T10:41:06.531Z,9.50
2022-11-05T10:43:50.579Z,9.40
2022-11-05T10:47:06.241Z,9.50
2022-11-05T10:49:58.681Z,9.40
2022-11-05T10:52:31.914Z,9.40
2022-11-05T10:55:01.975Z,9.40
2022-11-05T10:57:37.136Z,9.40
2022-11-05T11:00:17.074Z,9.40
2022-11-05T11:02:53.588Z,9.40
2022-11-05T11:05:37.432Z,9.40
2022-11-05T11:08:13.019Z,9.40
2022-11-05T11:10:50.406Z,9.40
2022-11-05T11:13:21.264Z,9.30
2022-11-05T11:15:51.169Z,9.30
2022-11-05T11:18:34.696Z,9.30
2022-11-05T11:21:14.128Z,9.30
2022-11-05T11:23:43.104Z,9.30
2022-11-05T11:26:11.903Z,9.30
2022-11-05T11:28:44.687Z,9.30
2022-11-05T11:31:20.999Z,9.30
2022-11-05T11:33:51.599Z,9.30
2022-11-05T11:36:26.223Z,9.30
2022-11-05T11:39:00.641Z,9.30
2022-11-05T11:41:34.058Z,9.30
2022-11-05T11:44:29.930Z,9.30
2022-11-05T11:47:09.304Z,9.30
2022-11-05T11:49:41.977Z,9.30
2022-11-05T11:52:16.699Z,9.30
2022-11-05T11:54:44.503Z,9.30
2022-11-05T11:57:29.205Z,9.30
2022-11-05T12:00:08.793Z,9.30
2022-11-05T12:03:04.333Z,9.30
2022-11-05T12:05:37.386Z,9.30
2022-11-05T12:08:18.407Z,9.30
2022-11-05T12:11:00.288Z,9.30
2022-11-05T12:13:34.805Z,9.40
2022-11-05T12:16:22.280Z,9.30
2022-11-05T12:19:18.152Z,9.30
2022-11-05T12:22:04.237Z,9.30
2022-11-05T12:24:46.635Z,9.30
2022-11-05T12:27:39.115Z,9.30
2022-11-05T12:30:17.575Z,9.30
2022-11-05T12:33:04.800Z,9.30
2022-11-05T12:36:09.502Z,9.30
2022-11-05T12:38:49.873Z,9.30
2022-11-05T12:41:24.979Z,9.30
2022-11-05T12:44:05.270Z,9.30
2022-11-05T12:47:07.665Z,9.30
2022-11-05T12:49:50.605Z,9.30
2022-11-05T12:52:37.038Z,9.30
2022-11-05T12:55:25.720Z,9.30
2022-11-05T12:57:57.131Z,9.30
2022-11-05T13:00:26.437Z,9.30
2022-11-05T13:02:56.977Z,9.30
2022-11-05T13:05:39.006Z,9.30
2022-11-05T13:08:07.514Z,9.30
2022-11-05T13:10:40.603Z,9.30
2022-11-05T13:13:25.296Z,9.30
2022-11-05T13:15:55.969Z,9.30
2022-11-05T13:18:47.280Z,9.30
2022-11-05T13:21:17.576Z,9.30
2022-11-05T13:24:02.375Z,9.30
2022-11-05T13:26:48.419Z,9.30
2022-11-05T13:29:28.273Z,9.30
2022-11-05T13:32:25.066Z,9.30
2022-11-05T13:34:55.277Z,9.30
2022-11-05T13:37:53.338Z,9.20
2022-11-05T13:40:32.925Z,9.30
2022-11-05T13:43:30.675Z,9.20
2022-11-05T13:46:46.306Z,9.20
2022-11-05T13:49:28.808Z,9.20
2022-11-05T13:52:17.332Z,9.20
2022-11-05T13:54:58.003Z,9.20
2022-11-05T13:57:34.573Z,9.20
2022-11-05T14:00:05.652Z,9.10
2022-11-05T14:02:52.528Z,9.10
2022-11-05T14:05:22.370Z,9.10
2022-11-05T14:07:51.738Z,9.20
2022-11-05T14:10:29.040Z,9.20
2022-11-05T14:12:58.835Z,9.10
2022-11-05T14:15:30.969Z,9.10
2022-11-05T14:18:17.181Z,9.20
2022-11-05T14:20:58.912Z,9.20
2022-11-05T14:23:31.386Z,9.20
2022-11-05T14:26:00.738Z,9.20
2022-11-05T14:28:36.508Z,9.20
2022-11-05T14:31:17.916Z,9.20
2022-11-05T14:34:03.566Z,9.20
2022-11-05T14:37:05.457Z,9.20
2022-11-05T14:39:33.735Z,9.20
2022-11-05T14:42:28.645Z,9.20
2022-11-05T14:45:16.162Z,9.30
2022-11-05T14:47:56.152Z,9.30
2022-11-05T14:50:42.946Z,9.30
2022-11-05T14:53:37.991Z,9.30
2022-11-05T14:56:13.459Z,9.30
2022-11-05T14:58:42.865Z,9.40
2022-11-05T15:01:13.688Z,9.40
2022-11-05T15:03:46.356Z,9.40
2022-11-05T15:06:35.252Z,9.40
2022-11-05T15:09:03.489Z,9.40
2022-11-05T15:11:39.019Z,9.40
2022-11-05T15:14:21.808Z,9.50
2022-11-05T15:16:56.243Z,9.50
2022-11-05T15:19:31.192Z,9.50
2022-11-05T15:22:03.240Z,9.50
2022-11-05T15:24:31.557Z,9.60
2022-11-05T15:27:18.344Z,9.60
2022-11-05T15:29:46.084Z,9.60
2022-11-05T15:32:18.329Z,9.60
2022-11-05T15:34:56.049Z,9.60
2022-11-05T15:37:26.399Z,9.60
2022-11-05T15:39:55.266Z,9.70
2022-11-05T15:42:25.878Z,9.70
2022-11-05T15:44:56.886Z,9.70
2022-11-05T15:47:34.597Z,9.70
2022-11-05T15:50:15.364Z,9.70
2022-11-05T15:52:53.246Z,9.70
2022-11-05T15:55:24.422Z,9.70
2022-11-05T15:58:03.229Z,9.80
2022-11-05T16:00:34.072Z,9.80
2022-11-05T16:03:30.169Z,9.80
2022-11-05T16:05:58.103Z,9.80
2022-11-05T16:08:28.581Z,9.80
2022-11-05T16:11:00.605Z,9.80
2022-11-05T16:13:34.162Z,9.80
2022-11-05T16:16:05.855Z,9.90
2022-11-05T16:18:36.284Z,9.90
2022-11-05T16:21:18.232Z,9.80
2022-11-05T16:23:48.803Z,9.90
2022-11-05T16:26:48.002Z,9.90
2022-11-05T16:29:23.636Z,9.90
2022-11-05T16:31:53.912Z,9.90
2022-11-05T16:34:29.594Z,9.90
2022-11-05T16:36:59.210Z,9.90
2022-11-05T16:39:27.623Z,9.90
2022-11-05T16:41:56.247Z,9.90
2022-11-05T16:44:24.526Z,9.90
2022-11-05T16:46:53.037Z,9.90
2022-11-05T16:49:22.661Z,9.90
2022-11-05T16:51:50.872Z,9.90
2022-11-05T16:54:18.664Z,9.90
2022-11-05T16:56:47.444Z,9.80
2022-11-05T16:59:15.302Z,9.80
2022-11-05T17:01:43.343Z,9.80
2022-11-05T17:04:13.372Z,9.70
2022-11-05T17:06:43.696Z,9.70
2022-11-05T17:09:12.747Z,9.70
2022-11-05T17:11:41.168Z,9.70
2022-11-05T17:14:12.348Z,9.70
2022-11-05T17:16:40.913Z,9.60
2022-11-05T17:19:15.481Z,9.60
2022-11-05T17:21:42.447Z,9.60
2022-11-05T17:24:09.357Z,9.60
2022-11-05T17:26:38.738Z,9.60
2022-11-05T17:29:06.378Z,9.50
2022-11-05T17:31:34.699Z,9.50
2022-11-05T17:34:03.213Z,9.50
2022-11-05T17:36:30.869Z,9.50
2022-11-05T17:38:59.103Z,9.40
2022-11-05T17:41:27.049Z,9.40
2022-11-05T17:43:56.593Z,9.70
2022-11-05T17:46:26.476Z,9.60
2022-11-05T17:48:55.587Z,9.60
2022-11-05T17:51:23.127Z,9.50
2022-11-05T17:53:52.963Z,9.50
2022-11-05T17:56:32.527Z,9.50
2022-11-05T17:59:02.841Z,9.50
2022-11-05T18:01:34.766Z,9.40
2022-11-05T18:04:08.640Z,9.40
2022-11-05T18:06:38.639Z,9.30
2022-11-05T18:09:07.848Z,9.30
2022-11-05T18:11:36.710Z,9.30
2022-11-05T18:14:05.848Z,9.30
2022-11-05T18:16:34.800Z,9.30
2022-11-05T18:19:03.803Z,9.20
2022-11-05T18:21:31.541Z,9.20
2022-11-05T18:24:06.567Z,9.20
2022-11-05T18:26:35.279Z,9.20
2022-11-05T18:29:05.851Z,9.20
2022-11-05T18:31:34.083Z,9.30
2022-11-05T18:34:02.541Z,9.30
2022-11-05T18:36:32.027Z,9.20
2022-11-05T18:39:01.590Z,9.20
2022-11-05T18:41:30.018Z,9.40
2022-11-05T18:44:01.047Z,9.40
2022-11-05T18:46:56.530Z,9.80
2022-11-05T18:49:19.905Z,9.70
2022-11-05T18:51:48.944Z,9.60
2022-11-05T18:54:19.110Z,9.90
2022-11-05T18:56:48.066Z,9.90
2022-11-05T19:02:08.647Z,9.60
2022-11-05T19:04:37.432Z,9.50
2022-11-05T19:07:08.104Z,9.40
2022-11-05T19:09:37.700Z,9.60
2022-11-05T19:12:07.415Z,9.40
2022-11-05T19:14:37.532Z,9.30
2022-11-05T19:17:05.820Z,9.30
2022-11-05T19:19:33.346Z,9.20
2022-11-05T19:22:01.570Z,9.20
2022-11-05T19:24:29.280Z,9.20
2022-11-05T19:26:57.176Z,9.10
2022-11-05T19:29:27.459Z,9.10
2022-11-05T19:31:55.729Z,9.10
2022-11-05T19:34:23.540Z,9.00
2022-11-05T19:36:51.781Z,9.00
2022-11-05T19:39:19.556Z,9.00
2022-11-05T19:41:48.419Z,9.00
2022-11-05T19:44:17.213Z,9.00
2022-11-05T19:46:44.875Z,8.90
2022-11-05T19:49:13.079Z,8.90
2022-11-05T19:51:40.957Z,8.90
2022-11-05T19:54:08.141Z,8.90
2022-11-05T19:56:38.449Z,8.90
2022-11-05T19:59:07.159Z,8.90
2022-11-05T20:01:35.277Z,8.90
2022-11-05T20:04:04.852Z,8.90
2022-11-05T20:06:38.679Z,8.90
2022-11-05T20:09:25.533Z,8.90
2022-11-05T20:11:56.467Z,8.90
2022-11-05T20:14:26.402Z,8.90
2022-11-05T20:16:54.271Z,8.90
2022-11-05T20:19:22.968Z,8.80
2022-11-05T20:21:52.159Z,8.80
2022-11-05T20:24:24.782Z,8.80
2022-11-05T20:26:54.724Z,8.90
2022-11-05T20:29:27.857Z,8.80
2022-11-05T20:31:59.829Z,8.90
2022-11-05T20:34:30.775Z,8.80
2022-11-05T20:37:00.736Z,8.80
2022-11-05T20:39:28.307Z,8.80
2022-11-05T20:41:57.193Z,8.80
2022-11-05T20:44:25.761Z,8.90
2022-11-05T20:46:54.817Z,8.90
2022-11-05T20:49:25.569Z,9.00
2022-11-05T20:51:54.664Z,8.90
2022-11-05T20:54:24.183Z,8.90
2022-11-05T20:56:53.121Z,8.90
2022-11-05T20:59:20.743Z,8.90
2022-11-05T21:01:50.750Z,9.10
2022-11-05T21:04:20.144Z,9.00
2022-11-05T21:06:47.722Z,8.90
2022-11-05T21:09:15.968Z,8.80
2022-11-05T21:12:14.286Z,8.80
2022-11-05T21:14:43.172Z,8.80
2022-11-05T21:17:13.328Z,8.80
2022-11-05T21:19:41.606Z,8.70
2022-11-05T21:22:15.175Z,8.70
2022-11-05T21:24:43.256Z,8.70
2022-11-05T21:27:10.189Z,8.70
2022-11-05T21:29:38.457Z,8.70
2022-11-05T21:32:07.188Z,8.60
2022-11-05T21:34:36.285Z,8.60
2022-11-05T21:37:05.662Z,8.60
2022-11-05T21:39:36.701Z,8.60
2022-11-05T21:42:04.981Z,8.60
2022-11-05T21:44:33.316Z,8.60
2022-11-05T21:47:04.436Z,8.50
2022-11-05T21:49:34.679Z,8.50
2022-11-05T21:52:20.133Z,8.50
2022-11-05T21:55:07.212Z,8.50
2022-11-05T21:57:57.037Z,8.50
2022-11-05T22:00:25.779Z,8.50
2022-11-05T22:02:54.318Z,8.40
2022-11-05T22:05:22.606Z,8.40
2022-11-05T22:07:50.177Z,8.40
2022-11-05T22:10:17.888Z,8.40
2022-11-05T22:12:45.451Z,8.40
2022-11-05T22:15:14.529Z,8.40
2022-11-05T22:17:47.007Z,8.40
2022-11-05T22:20:15.773Z,8.40
2022-11-05T22:22:44.481Z,8.40
2022-11-05T22:25:12.953Z,8.40
2022-11-05T22:27:42.075Z,8.40
2022-11-05T22:30:10.179Z,8.30
2022-11-05T22:32:39.364Z,8.40
2022-11-05T22:35:07.859Z,8.30
2022-11-05T22:37:36.139Z,8.30
2022-11-05T22:40:04.037Z,8.30
2022-11-05T22:42:31.665Z,8.30
2022-11-05T22:44:59.956Z,8.30
2022-11-05T22:47:27.589Z,8.30
2022-11-05T22:49:55.098Z,8.30
2022-11-05T22:52:22.736Z,8.30
2022-11-05T22:54:50.381Z,8.30
2022-11-05T22:57:18.498Z,8.30
2022-11-05T22:59:46.425Z,8.30
2022-11-05T23:02:14.118Z,8.30
2022-11-05T23:04:41.931Z,8.30
2022-11-05T23:07:29.840Z,8.20
2022-11-05T23:10:16.255Z,8.30
2022-11-05T23:12:45.268Z,8.30
2022-11-05T23:15:32.784Z,8.30
2022-11-05T23:18:18.148Z,8.30
2022-11-05T23:21:04.944Z,8.30
2022-11-05T23:23:51.842Z,8.30
2022-11-05T23:26:39.435Z,8.30
2022-11-05T23:29:08.300Z,8.30
2022-11-05T23:31:55.351Z,8.30
2022-11-05T23:34:22.843Z,8.30
2022-11-05T23:37:09.421Z,8.30
2022-11-05T23:39:42.668Z,8.40
2022-11-05T23:42:31.659Z,8.40
2022-11-05T23:45:17.944Z,8.40
2022-11-05T23:48:04.501Z,8.50
2022-11-05T23:50:37.126Z,8.50
2022-11-05T23:53:08.703Z,8.50
2022-11-05T23:55:36.539Z,8.50
2022-11-05T23:58:06.515Z,8.50
